sensor_id;sensor_type;location;lat;lon;timestamp;pressure;altitude;pressure_sealevel;temperature;humidity
3697;BME280;60662;48.810;8.872;2023-04-26T05:14:57;96651.88;;;2.72;98.84
3697;BME280;60662;48.810;8.872;2023-04-26T06:56:27;96692.78;;;7.57;67.13
3697;BME280;60662;48.810;8.872;2023-04-26T06:58:36;96678.66;;;7.39;67.47
3697;BME280;60662;48.810;8.872;2023-04-26T06:59:38;96681.69;;;7.80;67.12
3697;BME280;60662;48.810;8.872;2023-04-26T07:00:39;96692.81;;;7.83;66.87
3697;BME280;60662;48.810;8.872;2023-04-26T07:01:40;96689.09;;;7.91;66.86
3697;BME280;60662;48.810;8.872;2023-04-26T07:02:42;96680.28;;;8.22;68.01
3697;BME280;60662;48.810;8.872;2023-04-26T07:03:44;96687.72;;;8.58;68.22
3697;BME280;60662;48.810;8.872;2023-04-26T07:04:45;96685.03;;;8.59;66.56
3697;BME280;60662;48.810;8.872;2023-04-26T07:05:47;96685.91;;;8.60;65.88
3697;BME280;60662;48.810;8.872;2023-04-26T07:06:49;96681.44;;;8.87;65.34
3697;BME280;60662;48.810;8.872;2023-04-26T07:07:51;96681.91;;;9.21;63.34
3697;BME280;60662;48.810;8.872;2023-04-26T07:08:52;96680.38;;;8.93;60.83
3697;BME280;60662;48.810;8.872;2023-04-26T07:09:54;96682.59;;;8.29;62.24
3697;BME280;60662;48.810;8.872;2023-04-26T07:10:56;96680.44;;;8.17;62.94
3697;BME280;60662;48.810;8.872;2023-04-26T07:11:57;96663.81;;;8.46;64.19
3697;BME280;60662;48.810;8.872;2023-04-26T07:15:47;96664.69;;;8.47;64.76
3697;BME280;60662;48.810;8.872;2023-04-26T07:18:53;96677.41;;;8.55;64.36
3697;BME280;60662;48.810;8.872;2023-04-26T07:19:58;96680.41;;;8.68;64.87
3697;BME280;60662;48.810;8.872;2023-04-26T07:20:59;96675.03;;;8.72;65.75
3697;BME280;60662;48.810;8.872;2023-04-26T07:22:01;96677.06;;;8.64;65.64
3697;BME280;60662;48.810;8.872;2023-04-26T07:23:02;96673.75;;;8.84;64.95
3697;BME280;60662;48.810;8.872;2023-04-26T07:24:04;96671.16;;;9.06;64.97
3697;BME280;60662;48.810;8.872;2023-04-26T07:25:06;96675.03;;;8.72;64.96
3697;BME280;60662;48.810;8.872;2023-04-26T07:26:11;96679.13;;;9.25;61.99
3697;BME280;60662;48.810;8.872;2023-04-26T07:27:13;96669.66;;;9.67;62.12
3697;BME280;60662;48.810;8.872;2023-04-26T07:28:14;96670.53;;;9.68;62.11
3697;BME280;60662;48.810;8.872;2023-04-26T07:29:15;96670.22;;;9.53;60.21
3697;BME280;60662;48.810;8.872;2023-04-26T07:30:19;96665.13;;;8.82;59.43
3697;BME280;60662;48.810;8.872;2023-04-26T07:31:20;96665.63;;;8.92;62.08
3697;BME280;60662;48.810;8.872;2023-04-26T07:32:22;96660.34;;;9.17;63.12
3697;BME280;60662;48.810;8.872;2023-04-26T07:33:23;96666.75;;;9.30;63.64
3697;BME280;60662;48.810;8.872;2023-04-26T07:34:25;96673.81;;;9.28;63.46
3697;BME280;60662;48.810;8.872;2023-04-26T07:35:27;96669.00;;;9.18;63.99
3697;BME280;60662;48.810;8.872;2023-04-26T07:36:28;96669.19;;;9.35;62.27
3697;BME280;60662;48.810;8.872;2023-04-26T07:37:29;96673.50;;;9.36;61.07
3697;BME280;60662;48.810;8.872;2023-04-26T07:38:31;96671.13;;;9.74;62.20
3697;BME280;60662;48.810;8.872;2023-04-26T07:39:32;96664.03;;;10.19;61.81
3697;BME280;60662;48.810;8.872;2023-04-26T07:40:34;96664.03;;;10.60;61.42
3697;BME280;60662;48.810;8.872;2023-04-26T07:41:35;96661.56;;;10.76;61.60
3697;BME280;60662;48.810;8.872;2023-04-26T07:42:36;96659.28;;;11.26;61.25
3697;BME280;60662;48.810;8.872;2023-04-26T07:43:38;96657.50;;;11.46;60.85
3697;BME280;60662;48.810;8.872;2023-04-26T07:44:42;96649.91;;;11.58;60.18
3697;BME280;60662;48.810;8.872;2023-04-26T07:45:44;96661.63;;;11.69;59.16
3697;BME280;60662;48.810;8.872;2023-04-26T07:46:45;96661.22;;;11.96;59.49
3697;BME280;60662;48.810;8.872;2023-04-26T07:47:47;96669.94;;;11.96;58.89
3697;BME280;60662;48.810;8.872;2023-04-26T07:48:48;96666.69;;;11.54;58.60
3697;BME280;60662;48.810;8.872;2023-04-26T07:49:53;96676.25;;;10.98;60.96
3697;BME280;60662;48.810;8.872;2023-04-26T07:50:54;96666.09;;;11.11;60.35
3697;BME280;60662;48.810;8.872;2023-04-26T07:51:56;96666.94;;;11.11;60.78
3697;BME280;60662;48.810;8.872;2023-04-26T07:53:02;96676.69;;;11.08;62.12
3697;BME280;60662;48.810;8.872;2023-04-26T07:54:03;96669.81;;;10.67;61.67
3697;BME280;60662;48.810;8.872;2023-04-26T07:55:05;96672.69;;;10.61;61.73
3697;BME280;60662;48.810;8.872;2023-04-26T07:56:07;96676.19;;;10.41;62.38
3697;BME280;60662;48.810;8.872;2023-04-26T07:57:09;96670.44;;;10.12;61.72
3697;BME280;60662;48.810;8.872;2023-04-26T07:58:10;96668.91;;;10.68;61.42
3697;BME280;60662;48.810;8.872;2023-04-26T07:59:14;96673.44;;;11.03;61.57
3697;BME280;60662;48.810;8.872;2023-04-26T08:00:16;96668.56;;;10.95;61.85
3697;BME280;60662;48.810;8.872;2023-04-26T08:01:19;96676.44;;;10.55;62.01
3697;BME280;60662;48.810;8.872;2023-04-26T08:04:13;96668.81;;;10.09;61.37
3697;BME280;60662;48.810;8.872;2023-04-26T08:05:15;96680.41;;;10.02;61.60
3697;BME280;60662;48.810;8.872;2023-04-26T08:06:17;96684.56;;;10.06;62.71
3697;BME280;60662;48.810;8.872;2023-04-26T08:07:19;96678.69;;;10.01;63.56
3697;BME280;60662;48.810;8.872;2023-04-26T08:08:21;96685.16;;;9.92;63.53
3697;BME280;60662;48.810;8.872;2023-04-26T08:09:23;96682.84;;;9.85;63.72
3697;BME280;60662;48.810;8.872;2023-04-26T08:10:24;96682.78;;;9.86;63.48
3697;BME280;60662;48.810;8.872;2023-04-26T08:11:26;96672.44;;;9.85;64.36
3697;BME280;60662;48.810;8.872;2023-04-26T08:12:27;96686.84;;;9.93;63.98
3697;BME280;60662;48.810;8.872;2023-04-26T08:13:29;96680.19;;;9.86;63.44
3697;BME280;60662;48.810;8.872;2023-04-26T08:14:31;96683.44;;;9.91;64.39
3697;BME280;60662;48.810;8.872;2023-04-26T08:15:34;96686.03;;;9.26;62.80
3697;BME280;60662;48.810;8.872;2023-04-26T08:16:35;96682.53;;;9.04;63.21
3697;BME280;60662;48.810;8.872;2023-04-26T08:17:37;96685.97;;;9.28;63.42
3697;BME280;60662;48.810;8.872;2023-04-26T08:18:39;96683.78;;;9.39;62.81
3697;BME280;60662;48.810;8.872;2023-04-26T08:19:40;96677.75;;;9.39;62.76
3697;BME280;60662;48.810;8.872;2023-04-26T08:20:42;96677.03;;;9.11;62.33
3697;BME280;60662;48.810;8.872;2023-04-26T08:29:38;96684.16;;;9.08;65.05
3697;BME280;60662;48.810;8.872;2023-04-26T08:30:40;96694.75;;;9.25;65.68
3697;BME280;60662;48.810;8.872;2023-04-26T08:31:42;96685.78;;;9.32;64.14
3697;BME280;60662;48.810;8.872;2023-04-26T08:32:44;96688.28;;;9.36;63.41
3697;BME280;60662;48.810;8.872;2023-04-26T08:33:45;96684.63;;;9.62;64.14
3697;BME280;60662;48.810;8.872;2023-04-26T08:34:47;96687.66;;;9.73;64.16
3697;BME280;60662;48.810;8.872;2023-04-26T08:35:49;96695.19;;;10.02;63.55
3697;BME280;60662;48.810;8.872;2023-04-26T08:36:50;96692.16;;;9.70;63.53
3697;BME280;60662;48.810;8.872;2023-04-26T08:37:51;96683.59;;;9.88;62.48
3697;BME280;60662;48.810;8.872;2023-04-26T08:38:53;96693.53;;;10.01;62.13
3697;BME280;60662;48.810;8.872;2023-04-26T08:39:56;96690.25;;;9.95;62.07
3697;BME280;60662;48.810;8.872;2023-04-26T08:40:58;96696.25;;;9.97;61.41
3697;BME280;60662;48.810;8.872;2023-04-26T08:42:15;96698.19;;;10.13;60.34
3697;BME280;60662;48.810;8.872;2023-04-26T08:43:17;96696.81;;;10.47;60.75
3697;BME280;60662;48.810;8.872;2023-04-26T08:44:23;96674.94;;;10.50;59.21
3697;BME280;60662;48.810;8.872;2023-04-26T08:45:24;96691.06;;;10.59;57.81
3697;BME280;60662;48.810;8.872;2023-04-26T08:46:28;96691.66;;;10.45;59.24
3697;BME280;60662;48.810;8.872;2023-04-26T08:48:53;96692.78;;;10.40;58.34
3697;BME280;60662;48.810;8.872;2023-04-26T08:49:57;96681.91;;;10.28;57.41
3697;BME280;60662;48.810;8.872;2023-04-26T08:51:05;96694.22;;;10.66;58.16
3697;BME280;60662;48.810;8.872;2023-04-26T08:52:08;96692.13;;;11.51;57.27
3697;BME280;60662;48.810;8.872;2023-04-26T08:53:15;96683.56;;;11.84;56.95
3697;BME280;60662;48.810;8.872;2023-04-26T08:54:18;96684.16;;;11.71;55.59
3697;BME280;60662;48.810;8.872;2023-04-26T08:55:20;96688.19;;;11.79;56.27
3697;BME280;60662;48.810;8.872;2023-04-26T08:56:23;96680.50;;;11.56;57.43
3697;BME280;60662;48.810;8.872;2023-04-26T08:57:25;96682.16;;;11.40;56.41
3697;BME280;60662;48.810;8.872;2023-04-26T08:58:26;96688.50;;;11.90;56.29
3697;BME280;60662;48.810;8.872;2023-04-26T08:59:33;96690.53;;;12.02;56.27
3697;BME280;60662;48.810;8.872;2023-04-26T09:00:36;96675.00;;;11.99;55.54
3697;BME280;60662;48.810;8.872;2023-04-26T09:01:42;96691.53;;;12.00;55.26
3697;BME280;60662;48.810;8.872;2023-04-26T09:02:51;96680.47;;;11.75;55.61
3697;BME280;60662;48.810;8.872;2023-04-26T09:03:54;96675.09;;;11.79;54.94
3697;BME280;60662;48.810;8.872;2023-04-26T09:04:57;96684.03;;;11.74;55.17
3697;BME280;60662;48.810;8.872;2023-04-26T09:05:59;96687.63;;;11.35;54.49
3697;BME280;60662;48.810;8.872;2023-04-26T09:07:06;96686.59;;;11.01;53.93
3697;BME280;60662;48.810;8.872;2023-04-26T09:08:07;96677.28;;;10.56;53.82
3697;BME280;60662;48.810;8.872;2023-04-26T09:09:10;96687.72;;;10.56;54.36
3697;BME280;60662;48.810;8.872;2023-04-26T09:10:17;96673.88;;;10.54;53.70
3697;BME280;60662;48.810;8.872;2023-04-26T09:11:20;96680.47;;;10.62;54.06
3697;BME280;60662;48.810;8.872;2023-04-26T09:12:21;96681.09;;;10.68;55.31
3697;BME280;60662;48.810;8.872;2023-04-26T09:13:27;96663.34;;;10.35;55.28
3697;BME280;60662;48.810;8.872;2023-04-26T09:14:30;96684.66;;;10.46;55.52
3697;BME280;60662;48.810;8.872;2023-04-26T09:15:32;96676.56;;;10.52;54.87
3697;BME280;60662;48.810;8.872;2023-04-26T09:16:34;96684.41;;;9.68;53.95
3697;BME280;60662;48.810;8.872;2023-04-26T09:17:37;96669.56;;;9.48;54.95
3697;BME280;60662;48.810;8.872;2023-04-26T09:18:48;96676.75;;;9.63;55.08
3697;BME280;60662;48.810;8.872;2023-04-26T09:19:52;96676.22;;;9.55;56.83
3697;BME280;60662;48.810;8.872;2023-04-26T09:21:02;96666.44;;;9.38;56.47
3697;BME280;60662;48.810;8.872;2023-04-26T09:22:04;96658.63;;;9.38;55.87
3697;BME280;60662;48.810;8.872;2023-04-26T09:23:08;96666.00;;;9.71;54.97
3697;BME280;60662;48.810;8.872;2023-04-26T09:24:10;96673.09;;;9.90;55.48
3697;BME280;60662;48.810;8.872;2023-04-26T09:25:12;96671.53;;;10.06;57.79
3697;BME280;60662;48.810;8.872;2023-04-26T09:26:15;96675.09;;;10.24;56.31
3697;BME280;60662;48.810;8.872;2023-04-26T09:27:18;96670.53;;;10.29;55.64
3697;BME280;60662;48.810;8.872;2023-04-26T09:28:21;96680.47;;;10.01;56.24
3697;BME280;60662;48.810;8.872;2023-04-26T09:29:23;96681.47;;;10.19;56.54
3697;BME280;60662;48.810;8.872;2023-04-26T09:30:25;96662.72;;;10.29;57.89
3697;BME280;60662;48.810;8.872;2023-04-26T09:31:39;96670.72;;;10.66;58.17
3697;BME280;60662;48.810;8.872;2023-04-26T09:32:55;96663.25;;;10.77;56.48
3697;BME280;60662;48.810;8.872;2023-04-26T09:33:57;96656.94;;;10.83;56.13
3697;BME280;60662;48.810;8.872;2023-04-26T09:34:59;96670.19;;;10.98;55.71
3697;BME280;60662;48.810;8.872;2023-04-26T09:36:11;96664.41;;;11.10;55.70
3697;BME280;60662;48.810;8.872;2023-04-26T09:37:13;96669.81;;;10.67;53.24
3697;BME280;60662;48.810;8.872;2023-04-26T09:38:16;96668.88;;;10.49;55.06
3697;BME280;60662;48.810;8.872;2023-04-26T09:39:34;96672.78;;;10.59;55.58
3697;BME280;60662;48.810;8.872;2023-04-26T09:40:40;96670.53;;;10.71;56.14
3697;BME280;60662;48.810;8.872;2023-04-26T09:41:45;96671.00;;;10.60;54.75
3697;BME280;60662;48.810;8.872;2023-04-26T09:42:55;96662.41;;;10.58;54.96
3697;BME280;60662;48.810;8.872;2023-04-26T09:43:58;96664.97;;;10.78;56.17
3697;BME280;60662;48.810;8.872;2023-04-26T09:45:06;96665.59;;;11.03;55.39
3697;BME280;60662;48.810;8.872;2023-04-26T09:46:07;96659.94;;;10.93;53.41
3697;BME280;60662;48.810;8.872;2023-04-26T09:47:10;96661.81;;;10.51;52.28
3697;BME280;60662;48.810;8.872;2023-04-26T09:49:25;96666.63;;;9.56;53.96
3697;BME280;60662;48.810;8.872;2023-04-26T09:50:28;96657.59;;;9.20;55.49
3697;BME280;60662;48.810;8.872;2023-04-26T09:51:30;96658.63;;;9.38;55.57
3697;BME280;60662;48.810;8.872;2023-04-26T09:52:41;96660.75;;;9.73;56.88
3697;BME280;60662;48.810;8.872;2023-04-26T09:53:48;96652.75;;;9.98;56.73
3697;BME280;60662;48.810;8.872;2023-04-26T09:54:55;96666.31;;;9.86;57.57
3697;BME280;60662;48.810;8.872;2023-04-26T09:56:05;96653.97;;;10.51;57.85
3697;BME280;60662;48.810;8.872;2023-04-26T09:57:09;96663.78;;;10.86;57.96
3697;BME280;60662;48.810;8.872;2023-04-26T09:58:11;96658.91;;;10.97;56.26
3697;BME280;60662;48.810;8.872;2023-04-26T09:59:12;96662.38;;;10.39;56.16
3697;BME280;60662;48.810;8.872;2023-04-26T10:00:14;96649.28;;;10.59;56.55
3697;BME280;60662;48.810;8.872;2023-04-26T10:01:17;96658.22;;;11.67;55.73
3697;BME280;60662;48.810;8.872;2023-04-26T10:02:25;96657.19;;;12.23;55.28
3697;BME280;60662;48.810;8.872;2023-04-26T10:03:28;96646.25;;;12.33;52.90
3697;BME280;60662;48.810;8.872;2023-04-26T10:04:30;96644.69;;;12.13;52.40
3697;BME280;60662;48.810;8.872;2023-04-26T10:05:32;96652.88;;;12.22;51.05
3697;BME280;60662;48.810;8.872;2023-04-26T10:06:34;96655.25;;;12.45;51.21
3697;BME280;60662;48.810;8.872;2023-04-26T10:07:36;96644.97;;;12.24;51.67
3697;BME280;60662;48.810;8.872;2023-04-26T10:08:37;96647.69;;;12.72;51.46
3697;BME280;60662;48.810;8.872;2023-04-26T10:09:39;96658.16;;;13.05;51.69
3697;BME280;60662;48.810;8.872;2023-04-26T10:10:42;96646.97;;;12.86;51.08
3697;BME280;60662;48.810;8.872;2023-04-26T10:11:44;96651.09;;;13.39;50.99
3697;BME280;60662;48.810;8.872;2023-04-26T10:12:46;96637.28;;;13.52;51.24
3697;BME280;60662;48.810;8.872;2023-04-26T10:13:49;96657.75;;;13.45;50.70
3697;BME280;60662;48.810;8.872;2023-04-26T10:14:51;96649.72;;;13.48;51.01
3697;BME280;60662;48.810;8.872;2023-04-26T10:15:53;96645.66;;;13.43;50.78
3697;BME280;60662;48.810;8.872;2023-04-26T10:16:55;96650.56;;;12.34;51.28
3697;BME280;60662;48.810;8.872;2023-04-26T10:17:57;96660.53;;;11.73;51.54
3697;BME280;60662;48.810;8.872;2023-04-26T10:18:59;96651.03;;;11.72;53.22
3697;BME280;60662;48.810;8.872;2023-04-26T10:20:01;96651.47;;;11.63;54.20
3697;BME280;60662;48.810;8.872;2023-04-26T10:21:16;96645.81;;;10.59;54.58
3697;BME280;60662;48.810;8.872;2023-04-26T10:22:23;96639.31;;;11.25;55.83
3697;BME280;60662;48.810;8.872;2023-04-26T10:23:26;96652.28;;;11.46;54.08
3697;BME280;60662;48.810;8.872;2023-04-26T10:24:29;96647.63;;;11.70;53.89
3697;BME280;60662;48.810;8.872;2023-04-26T10:25:38;96647.34;;;11.76;54.09
3697;BME280;60662;48.810;8.872;2023-04-26T10:26:51;96647.63;;;11.70;55.29
3697;BME280;60662;48.810;8.872;2023-04-26T10:27:53;96651.28;;;12.02;54.71
3697;BME280;60662;48.810;8.872;2023-04-26T10:28:55;96652.34;;;11.98;55.09
3697;BME280;60662;48.810;8.872;2023-04-26T10:30:04;96655.84;;;11.99;53.65
3697;BME280;60662;48.810;8.872;2023-04-26T10:31:07;96650.16;;;11.71;53.91
3697;BME280;60662;48.810;8.872;2023-04-26T10:32:09;96650.31;;;11.68;55.90
3697;BME280;60662;48.810;8.872;2023-04-26T10:33:12;96648.25;;;11.92;55.54
3697;BME280;60662;48.810;8.872;2023-04-26T10:34:18;96646.13;;;11.64;53.23
3697;BME280;60662;48.810;8.872;2023-04-26T10:35:24;96647.66;;;11.14;53.61
3697;BME280;60662;48.810;8.872;2023-04-26T10:36:29;96641.44;;;10.98;54.30
3697;BME280;60662;48.810;8.872;2023-04-26T10:37:30;96638.69;;;11.01;55.18
3697;BME280;60662;48.810;8.872;2023-04-26T10:38:33;96651.47;;;11.07;54.26
3697;BME280;60662;48.810;8.872;2023-04-26T10:39:36;96649.84;;;11.23;55.16
3697;BME280;60662;48.810;8.872;2023-04-26T10:40:38;96652.53;;;11.03;54.70
3697;BME280;60662;48.810;8.872;2023-04-26T10:41:40;96644.41;;;10.90;55.79
3697;BME280;60662;48.810;8.872;2023-04-26T10:42:42;96647.19;;;11.06;56.34
3697;BME280;60662;48.810;8.872;2023-04-26T10:43:43;96641.13;;;11.42;56.12
3697;BME280;60662;48.810;8.872;2023-04-26T10:44:44;96639.66;;;11.54;54.92
3697;BME280;60662;48.810;8.872;2023-04-26T10:45:47;96642.56;;;11.48;54.85
3697;BME280;60662;48.810;8.872;2023-04-26T10:46:49;96642.75;;;11.44;54.25
3697;BME280;60662;48.810;8.872;2023-04-26T10:49:16;96642.22;;;11.55;54.08
3697;BME280;60662;48.810;8.872;2023-04-26T10:50:18;96640.94;;;11.82;53.63
3697;BME280;60662;48.810;8.872;2023-04-26T10:51:20;96644.00;;;11.72;53.47
3697;BME280;60662;48.810;8.872;2023-04-26T10:52:21;96637.34;;;11.48;54.24
3697;BME280;60662;48.810;8.872;2023-04-26T10:53:23;96626.59;;;11.54;54.73
3697;BME280;60662;48.810;8.872;2023-04-26T10:54:25;96641.44;;;11.53;55.33
3697;BME280;60662;48.810;8.872;2023-04-26T10:55:39;96644.16;;;11.52;53.87
3697;BME280;60662;48.810;8.872;2023-04-26T10:57:52;96638.91;;;11.52;53.08
3697;BME280;60662;48.810;8.872;2023-04-26T10:59:08;96638.91;;;10.96;54.53
3697;BME280;60662;48.810;8.872;2023-04-26T11:00:30;96645.50;;;10.86;54.92
3697;BME280;60662;48.810;8.872;2023-04-26T11:01:34;96645.69;;;10.81;52.73
3697;BME280;60662;48.810;8.872;2023-04-26T11:05:01;96640.19;;;10.27;52.82
3697;BME280;60662;48.810;8.872;2023-04-26T11:06:07;96637.75;;;10.03;53.69
3697;BME280;60662;48.810;8.872;2023-04-26T11:07:12;96637.53;;;10.08;54.00
3697;BME280;60662;48.810;8.872;2023-04-26T11:08:17;96640.69;;;10.37;53.50
3697;BME280;60662;48.810;8.872;2023-04-26T11:09:35;96635.03;;;10.67;54.59
3697;BME280;60662;48.810;8.872;2023-04-26T11:10:37;96618.38;;;10.69;53.64
3697;BME280;60662;48.810;8.872;2023-04-26T11:11:50;96630.72;;;10.66;52.71
3697;BME280;60662;48.810;8.872;2023-04-26T11:13:00;96636.78;;;10.66;52.65
3697;BME280;60662;48.810;8.872;2023-04-26T11:14:04;96630.09;;;10.99;52.13
3697;BME280;60662;48.810;8.872;2023-04-26T11:15:06;96615.13;;;10.64;52.29
3697;BME280;60662;48.810;8.872;2023-04-26T11:16:11;96625.25;;;10.51;52.41
3697;BME280;60662;48.810;8.872;2023-04-26T11:17:13;96631.47;;;10.87;52.25
3697;BME280;60662;48.810;8.872;2023-04-26T11:18:18;96627.22;;;11.41;51.68
3697;BME280;60662;48.810;8.872;2023-04-26T11:19:20;96609.94;;;12.27;51.22
3697;BME280;60662;48.810;8.872;2023-04-26T11:20:22;96616.41;;;12.53;51.04
3697;BME280;60662;48.810;8.872;2023-04-26T11:21:24;96605.72;;;12.89;50.98
3697;BME280;60662;48.810;8.872;2023-04-26T11:22:27;96610.53;;;13.29;50.00
3697;BME280;60662;48.810;8.872;2023-04-26T11:23:30;96607.72;;;13.64;49.18
3697;BME280;60662;48.810;8.872;2023-04-26T11:24:33;96605.88;;;13.66;48.94
3697;BME280;60662;48.810;8.872;2023-04-26T11:25:38;96604.41;;;13.61;48.51
3697;BME280;60662;48.810;8.872;2023-04-26T11:26:40;96607.38;;;14.15;47.23
3697;BME280;60662;48.810;8.872;2023-04-26T11:27:42;96606.56;;;14.44;45.57
3697;BME280;60662;48.810;8.872;2023-04-26T11:28:43;96606.09;;;14.80;45.13
3697;BME280;60662;48.810;8.872;2023-04-26T11:29:46;96600.41;;;13.39;48.18
3697;BME280;60662;48.810;8.872;2023-04-26T11:30:48;96589.56;;;12.97;49.16
3697;BME280;60662;48.810;8.872;2023-04-26T11:31:54;96594.13;;;13.88;46.39
3697;BME280;60662;48.810;8.872;2023-04-26T11:33:00;96593.59;;;14.41;45.90
3697;BME280;60662;48.810;8.872;2023-04-26T11:34:05;96587.31;;;14.43;45.86
3697;BME280;60662;48.810;8.872;2023-04-26T11:35:07;96591.06;;;13.80;46.41
3697;BME280;60662;48.810;8.872;2023-04-26T11:36:08;96584.41;;;13.44;46.21
3697;BME280;60662;48.810;8.872;2023-04-26T11:37:10;96581.88;;;12.29;51.00
3697;BME280;60662;48.810;8.872;2023-04-26T11:38:12;96585.16;;;14.35;48.80
3697;BME280;60662;48.810;8.872;2023-04-26T11:39:14;96581.03;;;14.60;47.52
3697;BME280;60662;48.810;8.872;2023-04-26T11:40:15;96583.56;;;12.30;47.73
3697;BME280;60662;48.810;8.872;2023-04-26T11:41:17;96582.22;;;12.88;48.33
3697;BME280;60662;48.810;8.872;2023-04-26T11:42:23;96579.66;;;13.81;49.35
3697;BME280;60662;48.810;8.872;2023-04-26T11:43:43;96560.22;;;14.43;49.18
3697;BME280;60662;48.810;8.872;2023-04-26T11:44:45;96581.00;;;14.89;47.91
3697;BME280;60662;48.810;8.872;2023-04-26T11:45:48;96572.47;;;15.00;48.73
3697;BME280;60662;48.810;8.872;2023-04-26T11:46:49;96573.44;;;14.70;47.63
3697;BME280;60662;48.810;8.872;2023-04-26T11:47:52;96565.47;;;13.69;48.42
3697;BME280;60662;48.810;8.872;2023-04-26T11:48:53;96564.34;;;14.32;47.29
3697;BME280;60662;48.810;8.872;2023-04-26T11:49:55;96578.00;;;14.09;46.06
3697;BME280;60662;48.810;8.872;2023-04-26T11:50:58;96569.09;;;14.26;47.70
3697;BME280;60662;48.810;8.872;2023-04-26T11:52:00;96576.88;;;14.13;47.33
3697;BME280;60662;48.810;8.872;2023-04-26T11:53:03;96569.31;;;14.08;46.61
3697;BME280;60662;48.810;8.872;2023-04-26T11:54:05;96568.81;;;14.01;48.31
3697;BME280;60662;48.810;8.872;2023-04-26T11:55:07;96568.31;;;13.80;45.24
3697;BME280;60662;48.810;8.872;2023-04-26T11:56:18;96564.94;;;13.78;45.52
3697;BME280;60662;48.810;8.872;2023-04-26T11:57:19;96562.00;;;14.28;45.50
3697;BME280;60662;48.810;8.872;2023-04-26T11:58:21;96568.50;;;13.31;45.47
3697;BME280;60662;48.810;8.872;2023-04-26T11:59:24;96561.66;;;12.64;46.71
3697;BME280;60662;48.810;8.872;2023-04-26T12:00:26;96572.06;;;12.50;46.88
3697;BME280;60662;48.810;8.872;2023-04-26T12:01:28;96569.97;;;13.04;46.07
3697;BME280;60662;48.810;8.872;2023-04-26T12:02:30;96574.78;;;13.28;45.64
3697;BME280;60662;48.810;8.872;2023-04-26T12:03:32;96568.25;;;12.55;47.82
3697;BME280;60662;48.810;8.872;2023-04-26T12:04:37;96570.88;;;12.71;47.43
3697;BME280;60662;48.810;8.872;2023-04-26T12:05:52;96566.91;;;12.96;46.75
3697;BME280;60662;48.810;8.872;2023-04-26T12:06:55;96572.41;;;13.39;46.35
3697;BME280;60662;48.810;8.872;2023-04-26T12:07:58;96570.50;;;14.02;45.30
3697;BME280;60662;48.810;8.872;2023-04-26T12:09:01;96571.63;;;14.13;45.50
3697;BME280;60662;48.810;8.872;2023-04-26T12:11:17;96574.63;;;14.50;47.53
3697;BME280;60662;48.810;8.872;2023-04-26T12:12:22;96563.22;;;14.36;48.00
3697;BME280;60662;48.810;8.872;2023-04-26T12:13:23;96565.81;;;15.22;47.91
3697;BME280;60662;48.810;8.872;2023-04-26T12:14:39;96559.53;;;15.24;45.95
3697;BME280;60662;48.810;8.872;2023-04-26T12:15:40;96563.47;;;15.17;46.39
3697;BME280;60662;48.810;8.872;2023-04-26T12:16:42;96556.97;;;14.95;46.55
3697;BME280;60662;48.810;8.872;2023-04-26T12:17:57;96568.41;;;15.76;46.42
3697;BME280;60662;48.810;8.872;2023-04-26T12:19:03;96575.75;;;15.71;45.79
3697;BME280;60662;48.810;8.872;2023-04-26T12:20:10;96573.25;;;15.42;46.56
3697;BME280;60662;48.810;8.872;2023-04-26T12:21:12;96567.56;;;15.35;46.38
3697;BME280;60662;48.810;8.872;2023-04-26T12:22:19;96569.84;;;15.00;46.97
3697;BME280;60662;48.810;8.872;2023-04-26T12:23:26;96570.00;;;15.11;46.95
3697;BME280;60662;48.810;8.872;2023-04-26T12:24:32;96559.19;;;14.74;46.50
3697;BME280;60662;48.810;8.872;2023-04-26T12:25:38;96567.88;;;14.89;46.39
3697;BME280;60662;48.810;8.872;2023-04-26T12:26:44;96558.44;;;14.72;44.55
3697;BME280;60662;48.810;8.872;2023-04-26T12:27:46;96564.47;;;14.00;45.65
3697;BME280;60662;48.810;8.872;2023-04-26T12:28:47;96555.72;;;14.16;46.94
3697;BME280;60662;48.810;8.872;2023-04-26T12:29:49;96551.56;;;13.97;46.47
3697;BME280;60662;48.810;8.872;2023-04-26T12:30:51;96565.38;;;14.73;46.43
3697;BME280;60662;48.810;8.872;2023-04-26T12:31:52;96565.88;;;15.07;45.19
3697;BME280;60662;48.810;8.872;2023-04-26T12:32:54;96561.50;;;14.79;45.62
3697;BME280;60662;48.810;8.872;2023-04-26T12:34:15;96574.25;;;14.56;45.60
3697;BME280;60662;48.810;8.872;2023-04-26T12:35:17;96568.00;;;14.73;45.86
3697;BME280;60662;48.810;8.872;2023-04-26T12:36:18;96565.00;;;14.79;47.06
3697;BME280;60662;48.810;8.872;2023-04-26T12:37:21;96557.56;;;15.13;47.54
3697;BME280;60662;48.810;8.872;2023-04-26T12:38:23;96566.22;;;14.30;45.53
3697;BME280;60662;48.810;8.872;2023-04-26T12:39:24;96558.47;;;13.84;48.11
3697;BME280;60662;48.810;8.872;2023-04-26T12:40:27;96559.56;;;14.25;47.77
3697;BME280;60662;48.810;8.872;2023-04-26T12:41:29;96553.47;;;14.39;48.11
3697;BME280;60662;48.810;8.872;2023-04-26T12:42:31;96568.34;;;13.95;46.89
3697;BME280;60662;48.810;8.872;2023-04-26T12:43:34;96551.19;;;14.03;47.86
3697;BME280;60662;48.810;8.872;2023-04-26T12:44:37;96563.38;;;13.60;49.56
3697;BME280;60662;48.810;8.872;2023-04-26T12:45:38;96564.31;;;14.03;48.57
3697;BME280;60662;48.810;8.872;2023-04-26T12:46:40;96563.22;;;14.22;48.96
3697;BME280;60662;48.810;8.872;2023-04-26T12:47:41;96547.63;;;14.19;48.16
3697;BME280;60662;48.810;8.872;2023-04-26T12:48:43;96562.00;;;13.68;45.43
3697;BME280;60662;48.810;8.872;2023-04-26T12:49:44;96556.50;;;13.43;45.47
3697;BME280;60662;48.810;8.872;2023-04-26T12:50:46;96558.72;;;12.70;47.50
3697;BME280;60662;48.810;8.872;2023-04-26T12:51:47;96560.06;;;12.46;47.72
3697;BME280;60662;48.810;8.872;2023-04-26T12:52:49;96560.47;;;13.18;46.84
3697;BME280;60662;48.810;8.872;2023-04-26T12:53:50;96547.69;;;13.44;47.99
3697;BME280;60662;48.810;8.872;2023-04-26T12:54:52;96536.31;;;13.74;46.27
3697;BME280;60662;48.810;8.872;2023-04-26T12:55:53;96549.69;;;14.28;46.00
3697;BME280;60662;48.810;8.872;2023-04-26T12:56:55;96553.56;;;14.51;45.59
3697;BME280;60662;48.810;8.872;2023-04-26T12:57:56;96549.56;;;15.02;45.41
3697;BME280;60662;48.810;8.872;2023-04-26T12:58:58;96547.75;;;15.30;45.17
3697;BME280;60662;48.810;8.872;2023-04-26T12:59:59;96552.31;;;14.57;46.29
3697;BME280;60662;48.810;8.872;2023-04-26T13:01:01;96545.66;;;15.08;46.84